sensor_id;sensor_type;location;lat;lon;timestamp;pressure;altitude;pressure_sealevel;temperature;humidity
19736;BME280;32064;49.310;8.646;2022-10-22T00:01:03;100168.16;;;17.66;96.80
19736;BME280;32064;49.310;8.646;2022-10-22T00:03:29;100150.47;;;17.57;98.36
19736;BME280;32064;49.310;8.646;2022-10-22T00:05:54;100147.31;;;17.53;98.62
19736;BME280;32064;49.310;8.646;2022-10-22T00:08:20;100153.28;;;17.47;97.55
19736;BME280;32064;49.310;8.646;2022-10-22T00:10:45;100168.59;;;17.53;98.45
19736;BME280;32064;49.310;8.646;2022-10-22T00:13:11;100175.06;;;17.50;97.48
19736;BME280;32064;49.310;8.646;2022-10-22T00:15:37;100182.38;;;17.48;97.53
19736;BME280;32064;49.310;8.646;2022-10-22T00:18:02;100172.88;;;17.46;98.58
19736;BME280;32064;49.310;8.646;2022-10-22T00:20:28;100186.34;;;17.44;98.70
19736;BME280;32064;49.310;8.646;2022-10-22T00:22:53;100184.50;;;17.45;97.60
19736;BME280;32064;49.310;8.646;2022-10-22T00:25:19;100199.78;;;17.43;98.82
19736;BME280;32064;49.310;8.646;2022-10-22T00:27:44;100198.13;;;17.42;97.46
19736;BME280;32064;49.310;8.646;2022-10-22T00:30:10;100201.94;;;17.39;98.34
19736;BME280;32064;49.310;8.646;2022-10-22T00:32:36;100218.56;;;17.41;97.99
19736;BME280;32064;49.310;8.646;2022-10-22T00:35:01;100231.88;;;17.41;96.94
19736;BME280;32064;49.310;8.646;2022-10-22T00:37:27;100244.16;;;17.42;97.05
19736;BME280;32064;49.310;8.646;2022-10-22T00:39:52;100248.66;;;17.42;96.84
19736;BME280;32064;49.310;8.646;2022-10-22T00:42:23;100240.31;;;17.37;97.10
19736;BME280;32064;49.310;8.646;2022-10-22T00:47:59;100248.22;;;17.28;97.08
19736;BME280;32064;49.310;8.646;2022-10-22T00:52:57;100231.44;;;17.28;98.22
19736;BME280;32064;49.310;8.646;2022-10-22T00:55:24;100242.22;;;17.26;97.18
19736;BME280;32064;49.310;8.646;2022-10-22T00:57:53;100228.47;;;17.31;97.29
19736;BME280;32064;49.310;8.646;2022-10-22T01:00:19;100217.00;;;17.31;95.98
19736;BME280;32064;49.310;8.646;2022-10-22T01:02:46;100212.44;;;17.23;96.96
19736;BME280;32064;49.310;8.646;2022-10-22T01:05:12;100214.47;;;17.29;96.52
19736;BME280;32064;49.310;8.646;2022-10-22T01:07:44;100204.03;;;17.27;96.25
19736;BME280;32064;49.310;8.646;2022-10-22T01:13:06;100206.50;;;17.29;96.35
19736;BME280;32064;49.310;8.646;2022-10-22T01:16:05;100202.00;;;17.21;96.15
19736;BME280;32064;49.310;8.646;2022-10-22T01:19:03;100214.28;;;17.22;94.31
19736;BME280;32064;49.310;8.646;2022-10-22T01:21:38;100217.31;;;17.27;95.05
19736;BME280;32064;49.310;8.646;2022-10-22T01:29:48;100215.84;;;17.33;95.10
19736;BME280;32064;49.310;8.646;2022-10-22T01:32:18;100218.34;;;17.35;94.75
19736;BME280;32064;49.310;8.646;2022-10-22T01:34:48;100222.69;;;17.36;96.12
19736;BME280;32064;49.310;8.646;2022-10-22T01:37:16;100234.16;;;17.36;96.42
19736;BME280;32064;49.310;8.646;2022-10-22T01:39:44;100248.59;;;17.34;94.93
19736;BME280;32064;49.310;8.646;2022-10-22T01:42:12;100257.28;;;17.36;96.31
19736;BME280;32064;49.310;8.646;2022-10-22T01:44:37;100244.94;;;17.35;95.08
19736;BME280;32064;49.310;8.646;2022-10-22T01:47:22;100253.09;;;17.33;96.49
19736;BME280;32064;49.310;8.646;2022-10-22T01:53:14;100256.06;;;17.30;96.10
19736;BME280;32064;49.310;8.646;2022-10-22T01:58:21;100263.88;;;17.32;95.72
19736;BME280;32064;49.310;8.646;2022-10-22T02:01:16;100267.00;;;17.27;94.81
19736;BME280;32064;49.310;8.646;2022-10-22T02:04:01;100269.13;;;17.23;95.78
19736;BME280;32064;49.310;8.646;2022-10-22T02:06:31;100259.84;;;17.27;95.51
19736;BME280;32064;49.310;8.646;2022-10-22T02:08:59;100248.41;;;17.27;95.89
19736;BME280;32064;49.310;8.646;2022-10-22T02:11:25;100258.22;;;17.35;93.80
19736;BME280;32064;49.310;8.646;2022-10-22T02:13:54;100249.59;;;17.33;94.35
19736;BME280;32064;49.310;8.646;2022-10-22T02:16:24;100248.59;;;17.34;93.99
19736;BME280;32064;49.310;8.646;2022-10-22T02:18:53;100241.25;;;17.27;95.22
19736;BME280;32064;49.310;8.646;2022-10-22T02:21:21;100230.63;;;17.27;95.11
19736;BME280;32064;49.310;8.646;2022-10-22T02:23:47;100220.13;;;17.26;94.62
19736;BME280;32064;49.310;8.646;2022-10-22T02:29:22;100198.72;;;17.10;95.53
19736;BME280;32064;49.310;8.646;2022-10-22T02:31:46;100192.31;;;17.20;95.51
19736;BME280;32064;49.310;8.646;2022-10-22T02:34:18;100180.84;;;17.20;95.41
19736;BME280;32064;49.310;8.646;2022-10-22T02:36:45;100172.06;;;17.19;94.47
19736;BME280;32064;49.310;8.646;2022-10-22T02:39:13;100160.03;;;17.15;94.32
19736;BME280;32064;49.310;8.646;2022-10-22T02:41:39;100164.84;;;17.12;95.77
19736;BME280;32064;49.310;8.646;2022-10-22T02:44:08;100148.00;;;17.03;96.41
19736;BME280;32064;49.310;8.646;2022-10-22T02:46:35;100141.41;;;17.07;95.74
19736;BME280;32064;49.310;8.646;2022-10-22T02:49:00;100143.69;;;17.02;94.54
19736;BME280;32064;49.310;8.646;2022-10-22T02:51:26;100140.22;;;17.01;96.28
19736;BME280;32064;49.310;8.646;2022-10-22T02:53:51;100135.28;;;16.89;96.03
19736;BME280;32064;49.310;8.646;2022-10-22T02:56:17;100134.53;;;16.96;96.82
19736;BME280;32064;49.310;8.646;2022-10-22T02:58:42;100143.91;;;17.09;96.01
19736;BME280;32064;49.310;8.646;2022-10-22T03:01:08;100157.69;;;17.12;94.66
19736;BME280;32064;49.310;8.646;2022-10-22T03:03:33;100169.84;;;17.15;94.25
19736;BME280;32064;49.310;8.646;2022-10-22T03:05:59;100168.56;;;17.19;94.55
19736;BME280;32064;49.310;8.646;2022-10-22T03:08:25;100169.41;;;17.19;96.08
19736;BME280;32064;49.310;8.646;2022-10-22T03:10:50;100168.41;;;17.20;94.92
19736;BME280;32064;49.310;8.646;2022-10-22T03:13:16;100168.41;;;17.20;95.40
19736;BME280;32064;49.310;8.646;2022-10-22T03:15:41;100161.25;;;17.21;95.07
19736;BME280;32064;49.310;8.646;2022-10-22T03:18:07;100160.34;;;17.12;95.96
19736;BME280;32064;49.310;8.646;2022-10-22T03:20:32;100160.72;;;17.17;93.78
19736;BME280;32064;49.310;8.646;2022-10-22T03:22:57;100163.25;;;17.19;94.16
19736;BME280;32064;49.310;8.646;2022-10-22T03:25:25;100158.59;;;17.21;95.04
19736;BME280;32064;49.310;8.646;2022-10-22T03:27:53;100161.09;;;17.22;94.34
19736;BME280;32064;49.310;8.646;2022-10-22T03:30:20;100166.28;;;17.24;93.91
19736;BME280;32064;49.310;8.646;2022-10-22T03:32:45;100173.56;;;17.22;94.96
19736;BME280;32064;49.310;8.646;2022-10-22T03:35:11;100182.00;;;17.17;94.83
19736;BME280;32064;49.310;8.646;2022-10-22T03:37:36;100218.25;;;17.18;95.61
19736;BME280;32064;49.310;8.646;2022-10-22T03:40:04;100228.88;;;17.18;94.75
19736;BME280;32064;49.310;8.646;2022-10-22T03:42:31;100240.50;;;17.17;95.73
19736;BME280;32064;49.310;8.646;2022-10-22T03:44:56;100237.84;;;17.17;95.14
19736;BME280;32064;49.310;8.646;2022-10-22T03:47:21;100238.84;;;17.16;95.07
19736;BME280;32064;49.310;8.646;2022-10-22T03:49:50;100244.28;;;17.15;95.79
19736;BME280;32064;49.310;8.646;2022-10-22T03:52:15;100246.28;;;17.13;95.56
19736;BME280;32064;49.310;8.646;2022-10-22T03:54:41;100261.56;;;17.11;95.73
19736;BME280;32064;49.310;8.646;2022-10-22T03:57:08;100262.69;;;17.08;94.10
19736;BME280;32064;49.310;8.646;2022-10-22T03:59:41;100264.44;;;16.99;95.36
19736;BME280;32064;49.310;8.646;2022-10-22T04:02:07;100266.72;;;16.94;95.41
19736;BME280;32064;49.310;8.646;2022-10-22T04:04:34;100266.19;;;16.91;95.43
19736;BME280;32064;49.310;8.646;2022-10-22T04:06:59;100269.28;;;16.86;93.88
19736;BME280;32064;49.310;8.646;2022-10-22T04:09:24;100270.72;;;16.80;95.62
19736;BME280;32064;49.310;8.646;2022-10-22T04:11:50;100269.38;;;16.76;95.78
19736;BME280;32064;49.310;8.646;2022-10-22T04:14:15;100279.59;;;16.71;94.97
19736;BME280;32064;49.310;8.646;2022-10-22T04:16:41;100287.16;;;16.66;94.41
19736;BME280;32064;49.310;8.646;2022-10-22T04:19:07;100302.88;;;16.59;94.48
19736;BME280;32064;49.310;8.646;2022-10-22T04:21:32;100307.78;;;16.54;94.96
19736;BME280;32064;49.310;8.646;2022-10-22T04:23:58;100326.50;;;16.53;94.01
19736;BME280;32064;49.310;8.646;2022-10-22T04:26:24;100324.31;;;16.48;94.79
19736;BME280;32064;49.310;8.646;2022-10-22T04:28:50;100331.59;;;16.46;93.84
19736;BME280;32064;49.310;8.646;2022-10-22T04:31:18;100331.75;;;16.45;94.92
19736;BME280;32064;49.310;8.646;2022-10-22T04:33:44;100335.84;;;16.39;93.85
19736;BME280;32064;49.310;8.646;2022-10-22T04:36:15;100337.09;;;16.35;93.54
19736;BME280;32064;49.310;8.646;2022-10-22T04:38:42;100340.19;;;16.30;95.00
19736;BME280;32064;49.310;8.646;2022-10-22T04:41:09;100335.63;;;16.23;95.19
19736;BME280;32064;49.310;8.646;2022-10-22T04:43:35;100335.63;;;16.23;95.29
19736;BME280;32064;49.310;8.646;2022-10-22T04:46:01;100331.28;;;16.22;94.73
19736;BME280;32064;49.310;8.646;2022-10-22T04:48:26;100335.75;;;16.21;93.95
19736;BME280;32064;49.310;8.646;2022-10-22T04:50:51;100330.72;;;16.18;95.58
19736;BME280;32064;49.310;8.646;2022-10-22T04:53:17;100331.28;;;16.22;95.70
19736;BME280;32064;49.310;8.646;2022-10-22T04:55:42;100329.31;;;16.24;95.69
19736;BME280;32064;49.310;8.646;2022-10-22T04:58:07;100333.63;;;16.25;95.32
19736;BME280;32064;49.310;8.646;2022-10-22T05:00:33;100342.47;;;16.25;95.41
19736;BME280;32064;49.310;8.646;2022-10-22T05:02:58;100344.41;;;16.23;95.04
19736;BME280;32064;49.310;8.646;2022-10-22T05:05:24;100347.19;;;16.22;96.15
19736;BME280;32064;49.310;8.646;2022-10-22T05:07:50;100345.13;;;16.25;97.22
19736;BME280;32064;49.310;8.646;2022-10-22T05:10:16;100341.47;;;16.26;96.21
19736;BME280;32064;49.310;8.646;2022-10-22T05:12:41;100343.28;;;16.26;97.44
19736;BME280;32064;49.310;8.646;2022-10-22T05:15:07;100351.94;;;16.28;96.11
19736;BME280;32064;49.310;8.646;2022-10-22T05:17:36;100343.28;;;16.26;96.21
19736;BME280;32064;49.310;8.646;2022-10-22T05:20:03;100348.44;;;16.27;96.97
19736;BME280;32064;49.310;8.646;2022-10-22T05:22:28;100349.72;;;16.23;97.25
19736;BME280;32064;49.310;8.646;2022-10-22T05:24:54;100353.38;;;16.22;95.94
19736;BME280;32064;49.310;8.646;2022-10-22T05:27:19;100357.16;;;16.20;96.68
19736;BME280;32064;49.310;8.646;2022-10-22T05:29:44;100361.75;;;16.17;96.69
19736;BME280;32064;49.310;8.646;2022-10-22T05:32:10;100369.84;;;16.16;95.95
19736;BME280;32064;49.310;8.646;2022-10-22T05:34:35;100371.84;;;16.14;95.96
19736;BME280;32064;49.310;8.646;2022-10-22T05:37:01;100375.44;;;16.13;96.38
19736;BME280;32064;49.310;8.646;2022-10-22T05:39:26;100378.25;;;16.11;95.81
19736;BME280;32064;49.310;8.646;2022-10-22T05:41:52;100373.25;;;16.08;95.38
19736;BME280;32064;49.310;8.646;2022-10-22T05:44:18;100375.06;;;16.08;95.76
19736;BME280;32064;49.310;8.646;2022-10-22T05:46:44;100376.31;;;16.04;95.86
19736;BME280;32064;49.310;8.646;2022-10-22T05:49:11;100388.75;;;16.03;94.82
19736;BME280;32064;49.310;8.646;2022-10-22T05:51:37;100393.38;;;16.01;95.53
19736;BME280;32064;49.310;8.646;2022-10-22T05:54:05;100392.53;;;16.01;95.88
19736;BME280;32064;49.310;8.646;2022-10-22T05:56:32;100394.34;;;16.00;95.17
19736;BME280;32064;49.310;8.646;2022-10-22T05:58:58;100398.97;;;15.98;95.66
19736;BME280;32064;49.310;8.646;2022-10-22T06:01:26;100393.81;;;15.97;94.79
19736;BME280;32064;49.310;8.646;2022-10-22T06:03:56;100397.59;;;15.94;95.32
19736;BME280;32064;49.310;8.646;2022-10-22T06:06:33;100401.34;;;15.91;95.62
19736;BME280;32064;49.310;8.646;2022-10-22T06:09:04;100406.66;;;15.91;95.00
19736;BME280;32064;49.310;8.646;2022-10-22T06:11:31;100406.78;;;15.90;94.72
19736;BME280;32064;49.310;8.646;2022-10-22T06:13:56;100412.09;;;15.90;95.90
19736;BME280;32064;49.310;8.646;2022-10-22T06:16:22;100418.22;;;15.90;94.94
19736;BME280;32064;49.310;8.646;2022-10-22T06:18:47;100421.88;;;15.89;95.41
19736;BME280;32064;49.310;8.646;2022-10-22T06:21:14;100427.06;;;15.91;94.40
19736;BME280;32064;49.310;8.646;2022-10-22T06:23:42;100427.88;;;15.91;94.74
19736;BME280;32064;49.310;8.646;2022-10-22T06:26:09;100437.66;;;15.91;95.86
19736;BME280;32064;49.310;8.646;2022-10-22T06:28:35;100436.81;;;15.90;95.33
19736;BME280;32064;49.310;8.646;2022-10-22T06:31:03;100448.13;;;15.92;96.39
19736;BME280;32064;49.310;8.646;2022-10-22T06:33:30;100448.00;;;15.94;96.10
19736;BME280;32064;49.310;8.646;2022-10-22T06:36:10;100446.88;;;15.97;95.67
19736;BME280;32064;49.310;8.646;2022-10-22T06:38:36;100449.94;;;16.02;95.12
19736;BME280;32064;49.310;8.646;2022-10-22T06:41:07;100450.50;;;16.05;95.01
19736;BME280;32064;49.310;8.646;2022-10-22T06:43:33;100450.59;;;16.13;95.56
19736;BME280;32064;49.310;8.646;2022-10-22T06:46:00;100468.63;;;16.20;96.19
19736;BME280;32064;49.310;8.646;2022-10-22T06:48:25;100464.72;;;16.24;95.65
19736;BME280;32064;49.310;8.646;2022-10-22T06:50:51;100476.75;;;16.28;95.85
19736;BME280;32064;49.310;8.646;2022-10-22T06:53:16;100467.63;;;16.30;96.45
19736;BME280;32064;49.310;8.646;2022-10-22T06:55:42;100483.72;;;16.29;95.61
19736;BME280;32064;49.310;8.646;2022-10-22T06:58:07;100487.06;;;16.31;97.25
19736;BME280;32064;49.310;8.646;2022-10-22T07:00:32;100486.50;;;16.37;95.30
19736;BME280;32064;49.310;8.646;2022-10-22T07:02:58;100489.56;;;16.42;95.48
19736;BME280;32064;49.310;8.646;2022-10-22T07:05:23;100501.84;;;16.43;95.48
19736;BME280;32064;49.310;8.646;2022-10-22T07:07:49;100500.44;;;16.49;97.01
19736;BME280;32064;49.310;8.646;2022-10-22T07:10:14;100496.66;;;16.51;96.51
19736;BME280;32064;49.310;8.646;2022-10-22T07:12:40;100494.72;;;16.53;95.98
19736;BME280;32064;49.310;8.646;2022-10-22T07:15:06;100511.19;;;16.57;95.07
19736;BME280;32064;49.310;8.646;2022-10-22T07:17:31;100509.91;;;16.61;95.42
19736;BME280;32064;49.310;8.646;2022-10-22T07:19:56;100515.63;;;16.66;96.01
19736;BME280;32064;49.310;8.646;2022-10-22T07:22:22;100516.59;;;16.75;95.98
19736;BME280;32064;49.310;8.646;2022-10-22T07:24:47;100521.63;;;16.88;95.98
19736;BME280;32064;49.310;8.646;2022-10-22T07:27:12;100523.34;;;17.06;95.84
19736;BME280;32064;49.310;8.646;2022-10-22T07:29:38;100529.22;;;17.10;94.41
19736;BME280;32064;49.310;8.646;2022-10-22T07:32:03;100522.31;;;17.17;95.03
19736;BME280;32064;49.310;8.646;2022-10-22T07:34:29;100526.91;;;17.25;94.76
19736;BME280;32064;49.310;8.646;2022-10-22T07:36:54;100525.72;;;17.37;96.01
19736;BME280;32064;49.310;8.646;2022-10-22T07:39:21;100519.59;;;17.55;95.58
19736;BME280;32064;49.310;8.646;2022-10-22T07:41:47;100514.63;;;17.69;94.37
19736;BME280;32064;49.310;8.646;2022-10-22T07:44:12;100524.63;;;18.47;93.15
19736;BME280;32064;49.310;8.646;2022-10-22T07:46:38;100524.94;;;19.73;86.91
19736;BME280;32064;49.310;8.646;2022-10-22T07:49:03;100531.63;;;19.93;86.55
19736;BME280;32064;49.310;8.646;2022-10-22T07:51:28;100524.59;;;19.92;86.40
19736;BME280;32064;49.310;8.646;2022-10-22T07:53:54;100524.88;;;19.65;87.63
19736;BME280;32064;49.310;8.646;2022-10-22T07:56:19;100527.00;;;19.53;88.01
19736;BME280;32064;49.310;8.646;2022-10-22T07:58:45;100536.19;;;19.50;87.90
19736;BME280;32064;49.310;8.646;2022-10-22T08:01:10;100536.03;;;19.60;87.34
19736;BME280;32064;49.310;8.646;2022-10-22T08:03:36;100538.47;;;20.29;85.56
19736;BME280;32064;49.310;8.646;2022-10-22T08:06:02;100542.38;;;22.08;78.85
19736;BME280;32064;49.310;8.646;2022-10-22T08:08:28;100538.28;;;24.48;71.51
19736;BME280;32064;49.310;8.646;2022-10-22T08:10:55;100541.97;;;26.19;65.89
19736;BME280;32064;49.310;8.646;2022-10-22T08:13:22;100535.53;;;27.45;60.86
19736;BME280;32064;49.310;8.646;2022-10-22T08:15:48;100539.38;;;27.63;59.66
19736;BME280;32064;49.310;8.646;2022-10-22T08:18:14;100544.97;;;27.74;58.84
19736;BME280;32064;49.310;8.646;2022-10-22T08:20:39;100543.03;;;27.43;59.08
19736;BME280;32064;49.310;8.646;2022-10-22T08:23:05;100543.63;;;26.40;61.48
19736;BME280;32064;49.310;8.646;2022-10-22T08:25:31;100548.22;;;24.76;64.35
19736;BME280;32064;49.310;8.646;2022-10-22T08:27:56;100546.38;;;23.69;67.21
19736;BME280;32064;49.310;8.646;2022-10-22T08:30:22;100550.66;;;22.97;69.40
19736;BME280;32064;49.310;8.646;2022-10-22T08:32:48;100553.75;;;22.33;70.45
19736;BME280;32064;49.310;8.646;2022-10-22T08:35:13;100553.38;;;21.90;72.81
19736;BME280;32064;49.310;8.646;2022-10-22T08:37:39;100562.88;;;21.70;74.06
19736;BME280;32064;49.310;8.646;2022-10-22T08:40:05;100567.00;;;21.49;74.58
19736;BME280;32064;49.310;8.646;2022-10-22T08:43:03;100555.88;;;21.21;74.81
19736;BME280;32064;49.310;8.646;2022-10-22T08:45:29;100572.34;;;21.02;75.96
19736;BME280;32064;49.310;8.646;2022-10-22T08:50:53;100561.53;;;20.71;76.97
19736;BME280;32064;49.310;8.646;2022-10-22T08:53:24;100565.56;;;20.67;77.94
19736;BME280;32064;49.310;8.646;2022-10-22T08:55:55;100571.06;;;20.57;78.73
19736;BME280;32064;49.310;8.646;2022-10-22T08:58:46;100575.56;;;20.48;78.77
19736;BME280;32064;49.310;8.646;2022-10-22T09:01:27;100586.09;;;20.58;78.79
19736;BME280;32064;49.310;8.646;2022-10-22T09:03:58;100589.78;;;20.65;80.26
19736;BME280;32064;49.310;8.646;2022-10-22T09:06:28;100592.94;;;21.88;76.12
19736;BME280;32064;49.310;8.646;2022-10-22T09:08:56;100596.81;;;23.52;71.49
19736;BME280;32064;49.310;8.646;2022-10-22T09:11:33;100589.72;;;23.95;70.47
19736;BME280;32064;49.310;8.646;2022-10-22T09:14:01;100592.25;;;25.72;65.99
19736;BME280;32064;49.310;8.646;2022-10-22T09:16:36;100593.25;;;26.79;62.52
19736;BME280;32064;49.310;8.646;2022-10-22T09:21:37;100603.00;;;29.17;56.94
19736;BME280;32064;49.310;8.646;2022-10-22T09:24:16;100604.66;;;30.04;55.20
19736;BME280;32064;49.310;8.646;2022-10-22T09:26:44;100599.97;;;30.88;52.48
19736;BME280;32064;49.310;8.646;2022-10-22T09:29:32;100597.94;;;31.42;48.62
19736;BME280;32064;49.310;8.646;2022-10-22T09:31:57;100608.94;;;32.05;50.16
19736;BME280;32064;49.310;8.646;2022-10-22T09:34:22;100606.31;;;32.43;48.34
19736;BME280;32064;49.310;8.646;2022-10-22T09:36:57;100605.94;;;32.52;45.01
19736;BME280;32064;49.310;8.646;2022-10-22T09:39:25;100606.63;;;33.15;43.95
19736;BME280;32064;49.310;8.646;2022-10-22T09:41:51;100602.97;;;33.70;43.67
19736;BME280;32064;49.310;8.646;2022-10-22T09:44:18;100611.81;;;34.04;42.65
19736;BME280;32064;49.310;8.646;2022-10-22T09:46:43;100603.47;;;34.53;40.75
19736;BME280;32064;49.310;8.646;2022-10-22T09:49:18;100610.97;;;34.63;39.98
19736;BME280;32064;49.310;8.646;2022-10-22T09:51:56;100619.06;;;34.90;41.37
19736;BME280;32064;49.310;8.646;2022-10-22T09:54:23;100614.38;;;35.23;40.46
19736;BME280;32064;49.310;8.646;2022-10-22T09:57:14;100614.94;;;35.25;38.66
19736;BME280;32064;49.310;8.646;2022-10-22T09:59:43;100613.16;;;35.61;39.03
19736;BME280;32064;49.310;8.646;2022-10-22T10:04:54;100615.66;;;35.68;35.85
19736;BME280;32064;49.310;8.646;2022-10-22T10:07:26;100630.72;;;35.70;37.08
19736;BME280;32064;49.310;8.646;2022-10-22T10:09:54;100631.31;;;35.83;37.62
19736;BME280;32064;49.310;8.646;2022-10-22T10:23:50;100627.75;;;35.87;35.73
19736;BME280;32064;49.310;8.646;2022-10-22T10:37:35;100626.63;;;35.68;35.56
19736;BME280;32064;49.310;8.646;2022-10-22T10:45:28;100617.78;;;35.50;36.97
19736;BME280;32064;49.310;8.646;2022-10-22T10:50:55;100627.41;;;35.63;34.81
19736;BME280;32064;49.310;8.646;2022-10-22T10:56:12;100614.41;;;35.33;36.59
19736;BME280;32064;49.310;8.646;2022-10-22T10:58:56;100614.22;;;35.02;36.31
19736;BME280;32064;49.310;8.646;2022-10-22T11:06:57;100610.97;;;35.63;35.10
19736;BME280;32064;49.310;8.646;2022-10-22T11:09:29;100613.78;;;35.89;35.57
19736;BME280;32064;49.310;8.646;2022-10-22T11:12:18;100609.94;;;35.85;35.65
19736;BME280;32064;49.310;8.646;2022-10-22T11:15:15;100610.75;;;35.80;34.38
19736;BME280;32064;49.310;8.646;2022-10-22T11:17:46;100607.22;;;35.95;35.70
19736;BME280;32064;49.310;8.646;2022-10-22T11:20:19;100605.84;;;35.82;34.59
19736;BME280;32064;49.310;8.646;2022-10-22T11:22:54;100602.31;;;36.02;34.02
19736;BME280;32064;49.310;8.646;2022-10-22T11:25:26;100602.28;;;35.92;34.23
19736;BME280;32064;49.310;8.646;2022-10-22T11:28:02;100588.63;;;36.28;33.58
19736;BME280;32064;49.310;8.646;2022-10-22T11:30:32;100597.41;;;36.35;33.74
19736;BME280;32064;49.310;8.646;2022-10-22T11:33:02;100591.94;;;36.60;33.68
19736;BME280;32064;49.310;8.646;2022-10-22T11:35:33;100599.88;;;36.67;33.77
19736;BME280;32064;49.310;8.646;2022-10-22T11:38:00;100596.81;;;36.89;33.46
19736;BME280;32064;49.310;8.646;2022-10-22T11:42:56;100597.44;;;35.41;33.66
19736;BME280;32064;49.310;8.646;2022-10-22T11:58:29;100604.53;;;34.84;33.93
19736;BME280;32064;49.310;8.646;2022-10-22T12:08:50;100581.56;;;35.28;34.15
19736;BME280;32064;49.310;8.646;2022-10-22T12:16:23;100578.84;;;34.16;35.37
19736;BME280;32064;49.310;8.646;2022-10-22T12:18:55;100574.22;;;33.62;34.95
19736;BME280;32064;49.310;8.646;2022-10-22T12:21:22;100574.53;;;33.22;36.93
19736;BME280;32064;49.310;8.646;2022-10-22T12:23:49;100561.34;;;32.58;35.92
19736;BME280;32064;49.310;8.646;2022-10-22T12:26:29;100561.41;;;31.84;38.30
19736;BME280;32064;49.310;8.646;2022-10-22T12:28:59;100567.50;;;31.33;38.48
19736;BME280;32064;49.310;8.646;2022-10-22T12:31:26;100558.84;;;30.73;39.43
19736;BME280;32064;49.310;8.646;2022-10-22T12:33:58;100559.06;;;30.36;40.12
19736;BME280;32064;49.310;8.646;2022-10-22T12:36:28;100555.84;;;29.85;39.97
19736;BME280;32064;49.310;8.646;2022-10-22T12:38:58;100553.22;;;29.60;40.91
19736;BME280;32064;49.310;8.646;2022-10-22T12:41:31;100549.69;;;29.11;41.42
19736;BME280;32064;49.310;8.646;2022-10-22T12:43:58;100544.09;;;28.87;42.82
19736;BME280;32064;49.310;8.646;2022-10-22T12:46:26;100546.38;;;28.65;43.98
19736;BME280;32064;49.310;8.646;2022-10-22T12:48:52;100543.47;;;28.42;45.50
19736;BME280;32064;49.310;8.646;2022-10-22T12:51:20;100543.03;;;28.13;43.82
19736;BME280;32064;49.310;8.646;2022-10-22T12:53:48;100553.22;;;27.86;44.83
19736;BME280;32064;49.310;8.646;2022-10-22T12:56:29;100545.56;;;27.38;45.82
19736;BME280;32064;49.310;8.646;2022-10-22T12:58:59;100543.28;;;27.35;45.30
19736;BME280;32064;49.310;8.646;2022-10-22T13:01:27;100547.25;;;27.26;46.39
19736;BME280;32064;49.310;8.646;2022-10-22T13:06:43;100551.31;;;26.77;47.35
19736;BME280;32064;49.310;8.646;2022-10-22T13:09:17;100550.47;;;26.76;47.32
19736;BME280;32064;49.310;8.646;2022-10-22T13:11:53;100556.72;;;26.77;46.78
19736;BME280;32064;49.310;8.646;2022-10-22T13:17:09;100558.19;;;26.59;49.88
19736;BME280;32064;49.310;8.646;2022-10-22T13:22:29;100562.50;;;26.40;50.16
19736;BME280;32064;49.310;8.646;2022-10-22T13:24:58;100558.56;;;26.43;50.03
19736;BME280;32064;49.310;8.646;2022-10-22T13:27:25;100550.50;;;26.36;50.39
19736;BME280;32064;49.310;8.646;2022-10-22T13:29:51;100551.28;;;26.24;50.13
19736;BME280;32064;49.310;8.646;2022-10-22T13:32:30;100544.44;;;26.14;50.26
19736;BME280;32064;49.310;8.646;2022-10-22T13:35:00;100541.94;;;26.06;49.25
19736;BME280;32064;49.310;8.646;2022-10-22T13:37:28;100542.78;;;26.07;49.67
19736;BME280;32064;49.310;8.646;2022-10-22T13:39:54;100533.22;;;25.97;49.76
19736;BME280;32064;49.310;8.646;2022-10-22T13:42:20;100542.75;;;25.87;50.06
19736;BME280;32064;49.310;8.646;2022-10-22T13:44:45;100542.06;;;25.78;51.94
19736;BME280;32064;49.310;8.646;2022-10-22T13:47:25;100532.94;;;25.66;52.29
19736;BME280;32064;49.310;8.646;2022-10-22T13:49:51;100533.72;;;25.53;51.24
19736;BME280;32064;49.310;8.646;2022-10-22T13:52:33;100538.44;;;25.38;51.67
19736;BME280;32064;49.310;8.646;2022-10-22T13:54:59;100526.53;;;25.19;51.76
19736;BME280;32064;49.310;8.646;2022-10-22T13:57:24;100528.69;;;25.02;52.08
19736;BME280;32064;49.310;8.646;2022-10-22T13:59:50;100529.91;;;24.99;52.32
19736;BME280;32064;49.310;8.646;2022-10-22T14:02:16;100532.19;;;24.96;53.66
19736;BME280;32064;49.310;8.646;2022-10-22T14:04:43;100526.97;;;24.87;53.69
19736;BME280;32064;49.310;8.646;2022-10-22T14:07:15;100536.06;;;24.80;53.52
19736;BME280;32064;49.310;8.646;2022-10-22T14:09:42;100534.59;;;24.77;53.34
19736;BME280;32064;49.310;8.646;2022-10-22T14:12:12;100537.41;;;24.69;54.87
19736;BME280;32064;49.310;8.646;2022-10-22T14:14:38;100538.00;;;24.64;55.44
19736;BME280;32064;49.310;8.646;2022-10-22T14:17:04;100543.34;;;24.58;55.56
19736;BME280;32064;49.310;8.646;2022-10-22T14:19:30;100540.59;;;24.51;55.77
19736;BME280;32064;49.310;8.646;2022-10-22T14:21:56;100542.19;;;24.46;55.88
19736;BME280;32064;49.310;8.646;2022-10-22T14:24:21;100536.34;;;24.42;55.13
19736;BME280;32064;49.310;8.646;2022-10-22T14:26:47;100546.41;;;24.33;56.78
19736;BME280;32064;49.310;8.646;2022-10-22T14:29:12;100537.66;;;24.25;56.84
19736;BME280;32064;49.310;8.646;2022-10-22T14:31:39;100536.75;;;24.17;57.51
19736;BME280;32064;49.310;8.646;2022-10-22T14:34:05;100540.03;;;24.13;56.82
19736;BME280;32064;49.310;8.646;2022-10-22T14:36:30;100538.13;;;24.07;57.10
19736;BME280;32064;49.310;8.646;2022-10-22T14:38:55;100534.34;;;24.01;57.97
19736;BME280;32064;49.310;8.646;2022-10-22T14:41:23;100536.56;;;23.97;58.90
19736;BME280;32064;49.310;8.646;2022-10-22T14:43:49;100534.47;;;23.93;59.76